Lake Villa, Illinois
Current Conditions -  °F | °C
As of 7:55 AM on Friday 31 Oct 2014 (Local Time) from KUGN Reporting Station
Broken Clouds Broken Clouds  
Wind Chill: 25°   Ceiling: 3900
Heat Index: 33°   Visibility: 10mi
Dew Point: 30°   Wind: 10mph
Humidity: 89%   Direction: 310°NW
Pressure: 30.1"   Gusts: 18mph
Location:  42.42°N, 88.07°W
Report Text: KUGN 311255Z 31009G16KT 10SM SCT021 BKN039 01/M01 A3010 RMK AO2 SNE11 SLP200 P0000 T00061011
Loading
Personal Weather Stations






























Interactive Weather Map
Tropical Storm Tracking
New forecast layout! Learn more

10-Day Weather Forecast

Advertisements
Track Severe Weather on mobile